createdAt,value
2022-10-23T00:00:58.298Z,12.81
2022-10-23T00:01:58.627Z,12.77
2022-10-23T00:02:59.042Z,12.77
2022-10-23T00:03:59.264Z,12.78
2022-10-23T00:04:59.603Z,12.77
2022-10-23T00:05:59.812Z,12.77
2022-10-23T00:07:00.155Z,12.77
2022-10-23T00:08:00.484Z,12.77
2022-10-23T00:09:00.792Z,12.74
2022-10-23T00:10:02.990Z,12.71
2022-10-23T00:11:01.409Z,12.71
2022-10-23T00:12:01.735Z,12.69
2022-10-23T00:13:02.078Z,12.71
2022-10-23T00:14:02.306Z,12.74
2022-10-23T00:15:02.629Z,12.71
2022-10-23T00:16:02.958Z,12.70
2022-10-23T00:17:03.327Z,12.69
2022-10-23T00:18:03.544Z,12.69
2022-10-23T00:19:03.887Z,12.70
2022-10-23T00:20:04.227Z,12.67
2022-10-23T00:21:04.445Z,12.69
2022-10-23T00:22:04.784Z,12.69
2022-10-23T00:23:04.998Z,12.67
2022-10-23T00:24:05.399Z,12.67
2022-10-23T00:25:05.574Z,12.64
2022-10-23T00:26:05.928Z,12.63
2022-10-23T00:27:06.191Z,12.63
2022-10-23T00:28:06.420Z,12.63
2022-10-23T00:29:06.647Z,12.57
2022-10-23T00:30:06.860Z,12.59
2022-10-23T00:31:07.194Z,12.60
2022-10-23T00:32:07.533Z,12.57
2022-10-23T00:33:07.850Z,12.56
2022-10-23T00:34:08.523Z,12.49
2022-10-23T00:35:08.475Z,12.45
2022-10-23T00:36:08.798Z,12.41
2022-10-23T00:37:09.162Z,12.42
2022-10-23T00:38:09.382Z,12.38
2022-10-23T00:39:09.704Z,12.33
2022-10-23T00:40:10.006Z,12.30
2022-10-23T00:41:10.316Z,12.33
2022-10-23T00:42:10.679Z,12.34
2022-10-23T00:43:10.899Z,12.31
2022-10-23T00:44:11.226Z,12.29
2022-10-23T00:45:11.545Z,12.34
2022-10-23T00:46:11.778Z,12.30
2022-10-23T00:47:12.150Z,12.26
2022-10-23T00:48:12.365Z,12.24
2022-10-23T00:50:12.988Z,12.23
2022-10-23T00:51:13.306Z,12.24
2022-10-23T02:55:56.561Z,11.85
2022-10-23T02:56:56.814Z,11.90
2022-10-23T02:57:57.080Z,11.90
2022-10-23T02:58:57.335Z,11.89
2022-10-23T02:59:57.614Z,11.86
2022-10-23T03:00:57.880Z,11.83
2022-10-23T03:01:58.246Z,11.85
2022-10-23T03:02:58.443Z,11.89
2022-10-23T03:03:58.774Z,11.87
2022-10-23T03:04:59.041Z,11.89
2022-10-23T03:05:59.301Z,11.87
2022-10-23T03:06:59.528Z,11.85
2022-10-23T03:07:59.852Z,11.85
2022-10-23T03:09:00.107Z,11.83
2022-10-23T03:10:00.327Z,11.78
2022-10-23T03:11:00.545Z,11.75
2022-10-23T03:12:00.916Z,11.74
2022-10-23T03:13:01.184Z,11.67
2022-10-23T03:14:01.400Z,11.67
2022-10-23T03:15:01.659Z,11.67
2022-10-23T03:16:01.874Z,11.71
2022-10-23T03:17:02.206Z,11.72
2022-10-23T03:18:02.530Z,11.71
2022-10-23T03:19:02.941Z,11.68
2022-10-23T03:20:03.218Z,11.72
2022-10-23T03:21:03.441Z,11.74
2022-10-23T03:22:03.666Z,11.70
2022-10-23T03:23:03.974Z,11.68
2022-10-23T03:24:04.292Z,11.72
2022-10-23T03:25:04.630Z,11.71
2022-10-23T03:26:04.873Z,11.68
2022-10-23T03:27:05.127Z,11.65
2022-10-23T03:28:05.334Z,11.59
2022-10-23T03:29:05.673Z,11.62
2022-10-23T03:30:05.987Z,11.62
2022-10-23T03:31:06.301Z,11.65
2022-10-23T03:32:06.644Z,11.68
2022-10-23T03:33:06.852Z,11.70
2022-10-23T03:34:08.214Z,11.67
2022-10-23T03:35:07.424Z,11.65
2022-10-23T03:36:07.762Z,11.67
2022-10-23T03:37:08.016Z,11.65
2022-10-23T03:38:08.233Z,11.67
2022-10-23T03:39:08.558Z,11.67
2022-10-23T03:40:08.876Z,11.65
2022-10-23T03:41:09.095Z,11.68
2022-10-23T03:42:09.463Z,11.65
2022-10-23T03:43:09.701Z,11.59
2022-10-23T03:44:09.910Z,11.59
2022-10-23T03:45:10.243Z,11.53
2022-10-23T03:46:10.562Z,11.50
2022-10-23T03:47:10.896Z,11.44
2022-10-23T03:48:11.163Z,11.38
2022-10-23T03:49:11.386Z,11.32
2022-10-23T03:50:11.717Z,11.31
2022-10-23T03:51:11.939Z,11.35
2022-10-23T03:52:12.326Z,11.43
2022-10-23T03:53:12.573Z,11.47
2022-10-23T03:54:12.779Z,11.50
2022-10-23T03:55:13.143Z,11.50
2022-10-23T03:56:13.370Z,11.49
2022-10-23T03:57:13.614Z,11.47
2022-10-23T03:58:13.826Z,11.46
2022-10-23T03:59:14.142Z,11.44
2022-10-23T04:00:14.451Z,11.46
2022-10-23T04:01:14.852Z,11.41
2022-10-23T04:02:15.190Z,11.41
2022-10-23T04:03:15.300Z,11.41
2022-10-23T04:04:15.624Z,11.39
2022-10-23T04:05:15.871Z,11.41
2022-10-23T04:06:16.099Z,11.39
2022-10-23T04:07:16.368Z,11.32
2022-10-23T04:08:19.904Z,11.31
2022-10-23T04:09:16.878Z,11.35
2022-10-23T04:10:17.139Z,11.38
2022-10-23T04:11:17.355Z,11.36
2022-10-23T04:12:17.694Z,11.36
2022-10-23T04:13:18.034Z,11.38
2022-10-23T04:14:18.371Z,11.38
2022-10-23T04:15:18.745Z,11.36
2022-10-23T04:16:18.959Z,11.36
2022-10-23T04:17:19.344Z,11.38
2022-10-23T04:18:19.586Z,11.36
2022-10-23T04:19:19.900Z,11.35
2022-10-23T04:20:20.148Z,11.34
2022-10-23T04:21:20.382Z,11.31
2022-10-23T04:22:23.540Z,11.29
2022-10-23T04:23:21.946Z,11.31
2022-10-23T04:24:21.227Z,11.25
2022-10-23T04:25:21.555Z,11.20
2022-10-23T04:26:21.895Z,11.19
2022-10-23T04:27:22.224Z,11.17
2022-10-23T04:28:22.592Z,11.16
2022-10-23T04:29:22.817Z,11.11
2022-10-23T04:30:23.028Z,11.07
2022-10-23T04:31:23.257Z,11.06
2022-10-23T04:32:23.492Z,11.03
2022-10-23T04:33:23.753Z,11.06
2022-10-23T04:34:23.981Z,11.06
2022-10-23T04:35:24.330Z,11.07
2022-10-23T04:36:24.557Z,11.10
2022-10-23T04:37:24.881Z,11.10
2022-10-23T04:38:25.240Z,11.07
2022-10-23T04:39:25.494Z,11.09
2022-10-23T04:40:25.715Z,11.10
2022-10-23T04:41:26.060Z,11.07
2022-10-23T04:43:26.540Z,11.02
2022-10-23T04:44:26.890Z,11.02
2022-10-23T04:45:27.103Z,10.98
2022-10-23T04:46:27.442Z,10.91
2022-10-23T04:47:27.755Z,10.86
2022-10-23T04:48:29.198Z,10.80
2022-10-23T04:49:28.413Z,10.73
2022-10-23T04:50:28.635Z,10.76
2022-10-23T04:51:29.005Z,10.81
2022-10-23T04:52:29.255Z,10.91
2022-10-23T04:53:29.463Z,10.95
2022-10-23T04:54:29.790Z,11.02
2022-10-23T04:55:30.013Z,11.03
2022-10-23T04:56:30.359Z,11.07
2022-10-23T04:57:30.600Z,11.02
2022-10-23T04:58:30.821Z,11.02
2022-10-23T04:59:31.045Z,11.03
2022-10-23T05:00:31.293Z,11.02
2022-10-23T05:01:31.680Z,10.98
2022-10-23T05:02:31.871Z,10.98
2022-10-23T05:03:32.134Z,10.96
2022-10-23T05:04:32.358Z,10.98
2022-10-23T05:05:32.591Z,10.96
2022-10-23T05:06:32.818Z,10.94
2022-10-23T05:07:33.047Z,10.86
2022-10-23T05:08:33.405Z,10.84
2022-10-23T05:09:33.629Z,10.77
2022-10-23T05:10:33.857Z,10.77
2022-10-23T05:11:34.090Z,10.76
2022-10-23T05:12:34.429Z,10.70
2022-10-23T05:13:34.689Z,10.68
2022-10-23T05:14:34.925Z,10.65
2022-10-23T05:15:35.202Z,10.66
2022-10-23T05:16:35.451Z,10.62
2022-10-23T05:17:35.797Z,10.63
2022-10-23T05:18:36.557Z,10.62
2022-10-23T05:19:36.322Z,10.58
2022-10-23T05:20:36.666Z,10.58
2022-10-23T05:21:37.004Z,10.56
2022-10-23T05:22:37.339Z,10.53
2022-10-23T05:23:37.577Z,10.56
2022-10-23T05:24:37.829Z,10.59
2022-10-23T05:25:38.053Z,10.62
2022-10-23T05:26:38.433Z,10.63
2022-10-23T05:27:38.655Z,10.62
2022-10-23T05:28:39.044Z,10.63
2022-10-23T05:29:39.216Z,10.65
2022-10-23T05:30:39.570Z,10.66
2022-10-23T05:31:39.808Z,10.66
2022-10-23T05:32:40.353Z,10.63
2022-10-23T05:33:40.421Z,10.53
2022-10-23T05:34:40.639Z,10.53
2022-10-23T05:35:41.018Z,10.58
2022-10-23T05:36:41.247Z,10.63
2022-10-23T05:37:41.469Z,10.66
2022-10-23T05:38:41.693Z,10.66
2022-10-23T05:39:41.940Z,10.63
2022-10-23T05:40:42.159Z,10.65
2022-10-23T05:41:42.405Z,10.68
2022-10-23T05:42:43.015Z,10.68
2022-10-23T05:43:42.917Z,10.63
2022-10-23T05:44:43.130Z,10.59
2022-10-23T05:45:43.449Z,10.66
2022-10-23T05:46:43.830Z,10.66
2022-10-23T05:47:44.042Z,10.65
2022-10-23T05:48:44.285Z,10.68
2022-10-23T05:49:44.511Z,10.66
2022-10-23T05:50:44.831Z,10.63
2022-10-23T05:51:45.084Z,10.63
2022-10-23T05:52:45.663Z,10.66
2022-10-23T05:53:45.591Z,10.68
2022-10-23T05:54:45.920Z,10.65
2022-10-23T05:55:46.138Z,10.62
2022-10-23T05:56:46.473Z,10.58
2022-10-23T05:57:46.716Z,10.56
2022-10-23T05:58:46.977Z,10.58
2022-10-23T05:59:47.207Z,10.58
2022-10-23T06:00:47.428Z,10.62
2022-10-23T06:01:47.863Z,10.66
2022-10-23T06:02:47.950Z,10.73
2022-10-23T06:03:48.232Z,10.73
2022-10-23T06:04:48.447Z,10.73
2022-10-23T06:05:48.681Z,10.77
2022-10-23T06:06:49.053Z,10.80
2022-10-23T06:07:49.287Z,10.81
2022-10-23T06:08:49.521Z,10.83
2022-10-23T06:09:49.779Z,10.83
2022-10-23T06:10:50.019Z,10.83
2022-10-23T06:11:50.250Z,10.86
2022-10-23T06:12:50.570Z,10.92
2022-10-23T06:13:50.887Z,10.89
2022-10-23T06:14:51.952Z,10.91
2022-10-23T06:15:51.359Z,10.96
2022-10-23T06:16:51.620Z,11.03
2022-10-23T06:17:51.859Z,11.07
2022-10-23T06:18:52.109Z,11.11
2022-10-23T06:19:52.356Z,11.16
2022-10-23T06:20:52.578Z,11.17
2022-10-23T06:21:52.793Z,11.21
2022-10-23T06:22:53.127Z,11.27
2022-10-23T06:23:53.378Z,11.29
2022-10-23T06:24:53.606Z,11.35
2022-10-23T06:25:53.854Z,11.38
2022-10-23T06:26:54.073Z,11.41
2022-10-23T06:27:54.305Z,11.41
2022-10-23T06:28:54.658Z,11.43
2022-10-23T06:29:54.868Z,11.50
2022-10-23T06:30:55.206Z,11.56
2022-10-23T06:31:55.464Z,11.62
2022-10-23T06:32:55.713Z,11.68
2022-10-23T06:33:55.930Z,11.71
2022-10-23T06:34:56.158Z,11.72
2022-10-23T06:35:56.401Z,11.78
2022-10-23T06:36:56.624Z,11.85
2022-10-23T06:37:56.898Z,11.90
2022-10-23T06:38:57.181Z,11.93
2022-10-23T06:39:57.419Z,11.96
2022-10-23T06:40:57.653Z,12.01
2022-10-23T06:41:57.875Z,12.05
2022-10-23T06:42:58.249Z,12.08
2022-10-23T06:43:58.483Z,12.11
2022-10-23T06:45:01.137Z,12.16
2022-10-23T06:45:59.075Z,12.19
2022-10-23T06:46:59.303Z,12.15
2022-10-23T06:47:59.666Z,12.11
2022-10-23T06:48:59.924Z,12.12
2022-10-23T06:50:00.156Z,12.08
2022-10-23T06:51:00.389Z,12.09
2022-10-23T06:52:00.608Z,12.15
2022-10-23T06:53:00.957Z,12.15
2022-10-23T06:54:01.203Z,12.19
2022-10-23T06:55:01.418Z,12.21
2022-10-23T06:56:01.646Z,12.26
2022-10-23T06:57:01.991Z,12.29
2022-10-23T06:58:02.248Z,12.39
2022-10-23T06:59:02.456Z,12.46
2022-10-23T07:00:02.765Z,12.45
2022-10-23T07:01:03.266Z,12.51
2022-10-23T07:02:03.312Z,12.56
2022-10-23T07:03:03.666Z,12.62
2022-10-23T07:04:03.994Z,12.67
2022-10-23T07:05:04.239Z,12.69
2022-10-23T07:06:04.578Z,12.75
2022-10-23T07:07:04.915Z,12.81
2022-10-23T07:08:05.249Z,12.85
2022-10-23T07:09:05.626Z,12.88
2022-10-23T07:10:05.890Z,12.88
2022-10-23T07:11:06.125Z,12.93
2022-10-23T07:12:06.351Z,12.96
2022-10-23T07:13:06.677Z,12.97
2022-10-23T07:14:06.894Z,12.99
2022-10-23T07:15:07.224Z,12.93
2022-10-23T07:16:07.567Z,12.95
2022-10-23T07:17:07.825Z,12.95
2022-10-23T07:18:08.033Z,13.03
2022-10-23T07:19:08.403Z,13.17
2022-10-23T07:20:08.615Z,13.21
2022-10-23T07:21:08.935Z,13.22
2022-10-23T07:22:10.829Z,13.06
2022-10-23T07:23:09.526Z,12.88
2022-10-23T07:24:09.905Z,12.88
2022-10-23T07:25:10.128Z,13.32
2022-10-23T07:26:10.353Z,13.73
2022-10-23T07:27:10.693Z,13.96
2022-10-23T07:28:10.918Z,13.98
2022-10-23T07:29:11.182Z,13.94
2022-10-23T07:30:11.410Z,14.02
2022-10-23T07:31:11.754Z,14.19
2022-10-23T07:32:11.977Z,14.34
2022-10-23T07:33:12.304Z,14.43
2022-10-23T07:34:12.669Z,14.61
2022-10-23T07:36:14.160Z,14.78
2022-10-23T07:37:13.439Z,14.83
2022-10-23T07:38:13.785Z,14.87
2022-10-23T07:39:14.128Z,14.88
2022-10-23T07:40:14.325Z,14.84
2022-10-23T07:41:14.644Z,14.80
2022-10-23T07:42:14.967Z,14.75
2022-10-23T07:43:15.300Z,14.75
2022-10-23T07:44:15.655Z,14.74
2022-10-23T07:45:15.858Z,14.72
2022-10-23T07:46:16.189Z,14.72
2022-10-23T07:47:16.515Z,14.65
2022-10-23T07:48:16.828Z,14.57
2022-10-23T07:49:17.218Z,14.57
2022-10-23T07:50:17.467Z,14.53
2022-10-23T07:51:17.674Z,14.56
2022-10-23T07:52:18.012Z,14.60
2022-10-23T07:53:18.326Z,14.64
2022-10-23T07:54:18.650Z,14.67
2022-10-23T07:55:18.975Z,14.74
2022-10-23T07:56:19.177Z,14.83
2022-10-23T07:57:19.495Z,14.87
2022-10-23T07:58:19.800Z,14.91
2022-10-23T07:59:20.139Z,14.98
2022-10-23T08:00:20.538Z,15.05
2022-10-23T08:01:20.815Z,15.02
2022-10-23T08:02:21.058Z,14.95
2022-10-23T08:03:21.312Z,15.03
2022-10-23T08:04:21.663Z,15.11
2022-10-23T08:05:21.905Z,15.19
2022-10-23T08:06:22.102Z,15.17
2022-10-23T08:07:22.426Z,15.17
2022-10-23T08:08:22.796Z,15.23
2022-10-23T08:09:23.018Z,15.28
2022-10-23T08:10:23.383Z,15.33
2022-10-23T08:11:23.697Z,15.42
2022-10-23T08:12:23.926Z,15.45
2022-10-23T08:13:24.248Z,15.56
2022-10-23T08:14:24.566Z,15.66
2022-10-23T08:15:24.870Z,15.76
2022-10-23T08:16:25.215Z,15.86
2022-10-23T08:17:28.174Z,15.99
2022-10-23T08:18:25.641Z,16.09
2022-10-23T08:19:25.960Z,16.16
2022-10-23T08:20:26.297Z,16.27
2022-10-23T08:21:26.556Z,16.40
2022-10-23T08:22:26.790Z,16.49
2022-10-23T08:23:27.016Z,16.65
2022-10-23T08:24:27.240Z,16.80
2022-10-23T08:25:27.634Z,16.92
2022-10-23T08:26:27.889Z,17.08
2022-10-23T08:27:28.145Z,17.22
2022-10-23T08:28:28.369Z,17.32
2022-10-23T08:29:28.698Z,17.33
2022-10-23T08:30:29.036Z,17.38
2022-10-23T08:31:29.415Z,17.38
2022-10-23T08:32:29.628Z,17.47
2022-10-23T08:33:29.932Z,17.69
2022-10-23T08:34:30.260Z,17.97
2022-10-23T08:35:30.600Z,18.46
2022-10-23T08:36:30.838Z,18.97
2022-10-23T08:37:31.055Z,19.43
2022-10-23T08:38:31.400Z,19.66
2022-10-23T08:39:31.716Z,19.69
2022-10-23T08:40:32.067Z,19.68
2022-10-23T08:41:32.300Z,19.68
2022-10-23T08:42:32.489Z,19.80
2022-10-23T08:43:32.825Z,20.34
2022-10-23T08:44:33.142Z,21.13
2022-10-23T08:45:33.489Z,21.83
2022-10-23T08:46:33.826Z,22.43
2022-10-23T08:47:34.182Z,23.09
2022-10-23T08:48:34.405Z,23.75
2022-10-23T08:49:34.733Z,24.41
2022-10-23T08:50:35.101Z,24.90
2022-10-23T08:51:35.312Z,25.19
2022-10-23T08:52:35.669Z,25.30
2022-10-23T08:53:35.898Z,25.47
2022-10-23T08:54:36.222Z,25.56
2022-10-23T08:55:36.577Z,25.74
2022-10-23T08:56:36.909Z,25.54
2022-10-23T08:57:40.089Z,25.91
2022-10-23T08:58:38.460Z,26.18
2022-10-23T08:59:37.760Z,26.43
2022-10-23T09:00:38.072Z,26.18
2022-10-23T09:01:38.564Z,26.29
2022-10-23T09:02:38.692Z,26.11
2022-10-23T09:03:38.913Z,25.67
2022-10-23T09:04:39.237Z,25.01
2022-10-23T09:05:39.541Z,24.12
2022-10-23T09:06:39.851Z,23.07
2022-10-23T09:07:40.291Z,21.98
2022-10-23T09:08:40.520Z,21.29
2022-10-23T09:09:40.836Z,20.83
2022-10-23T09:10:41.168Z,20.42
2022-10-23T09:11:41.499Z,20.10
2022-10-23T09:12:41.731Z,19.73
2022-10-23T09:13:41.933Z,19.53
2022-10-23T09:14:42.260Z,19.38
2022-10-23T09:15:42.601Z,19.28
2022-10-23T09:16:42.791Z,19.28
2022-10-23T09:17:43.459Z,19.86
2022-10-23T09:18:43.401Z,20.02
2022-10-23T09:19:43.711Z,19.97
2022-10-23T09:20:44.028Z,19.73
2022-10-23T09:21:44.231Z,19.47
2022-10-23T09:22:44.541Z,19.29
2022-10-23T09:23:44.854Z,19.21
2022-10-23T09:24:45.172Z,19.17
2022-10-23T09:25:45.517Z,19.15
2022-10-23T09:26:45.833Z,19.17
2022-10-23T09:27:46.224Z,19.14
2022-10-23T09:28:46.413Z,18.99
2022-10-23T09:29:46.735Z,18.83
2022-10-23T09:30:47.041Z,18.73
2022-10-23T09:31:47.369Z,18.67
2022-10-23T09:32:47.713Z,18.65
2022-10-23T09:33:47.905Z,18.86
2022-10-23T09:34:48.253Z,19.06
2022-10-23T09:35:48.559Z,19.47
2022-10-23T09:36:48.898Z,20.00
2022-10-23T09:37:49.109Z,20.47
2022-10-23T09:38:49.403Z,20.69
2022-10-23T09:39:49.737Z,21.36
2022-10-23T09:40:49.935Z,22.12
2022-10-23T09:41:50.906Z,22.37
2022-10-23T09:42:50.597Z,22.56
2022-10-23T09:43:50.905Z,22.39
2022-10-23T09:44:51.240Z,22.43
2022-10-23T09:45:51.553Z,22.47
2022-10-23T09:46:51.880Z,22.50
2022-10-23T09:47:52.151Z,22.49
2022-10-23T09:48:52.445Z,22.23
2022-10-23T09:49:52.802Z,22.02
2022-10-23T09:50:53.026Z,21.67
2022-10-23T09:51:53.324Z,21.63
2022-10-23T09:52:53.690Z,21.69
2022-10-23T09:53:53.939Z,21.76
2022-10-23T09:54:54.265Z,21.72
2022-10-23T09:55:54.608Z,21.38
2022-10-23T09:56:54.811Z,21.13
2022-10-23T09:57:55.132Z,21.08
2022-10-23T09:58:55.464Z,21.09
2022-10-23T09:59:55.678Z,21.09
2022-10-23T10:00:55.986Z,20.93
2022-10-23T10:01:56.326Z,20.24
2022-10-23T10:02:56.433Z,20.05
2022-10-23T10:03:56.746Z,19.90
2022-10-23T10:04:57.084Z,20.03
2022-10-23T10:05:57.401Z,19.93
2022-10-23T10:06:57.697Z,20.06
2022-10-23T10:07:58.006Z,20.24
2022-10-23T10:08:58.313Z,20.23
2022-10-23T10:09:58.667Z,20.12
2022-10-23T10:10:58.888Z,20.10
2022-10-23T10:11:59.211Z,20.08
2022-10-23T10:12:59.523Z,19.91
2022-10-23T10:13:59.838Z,20.10
2022-10-23T10:15:00.165Z,20.38
2022-10-23T10:16:00.466Z,20.64
2022-10-23T10:17:00.783Z,20.86
2022-10-23T10:18:01.137Z,20.90
2022-10-23T10:19:01.433Z,20.91
2022-10-23T10:20:05.236Z,21.01
2022-10-23T10:21:03.062Z,20.80
2022-10-23T10:22:02.328Z,20.95
2022-10-23T10:23:02.629Z,20.93
2022-10-23T10:24:02.945Z,20.86
2022-10-23T10:25:03.259Z,20.79
2022-10-23T10:26:03.571Z,20.84
2022-10-23T10:27:03.918Z,20.96
2022-10-23T10:28:04.228Z,21.06
2022-10-23T10:29:04.536Z,21.19
2022-10-23T10:30:04.928Z,21.19
2022-10-23T10:31:05.109Z,21.09
2022-10-23T10:32:05.456Z,21.35
2022-10-23T10:33:05.787Z,21.69
2022-10-23T10:34:06.107Z,21.92
2022-10-23T10:35:06.419Z,21.98
2022-10-23T10:36:06.733Z,21.95
2022-10-23T10:37:07.084Z,21.91
2022-10-23T10:38:07.278Z,21.91
2022-10-23T10:39:07.579Z,22.37
2022-10-23T10:40:07.867Z,22.72
2022-10-23T10:41:08.200Z,22.77
2022-10-23T10:42:08.544Z,22.56
2022-10-23T10:43:08.888Z,22.41
2022-10-23T10:44:09.087Z,22.96
2022-10-23T10:45:09.386Z,24.17
2022-10-23T10:46:09.743Z,25.22
2022-10-23T10:47:09.957Z,24.87
2022-10-23T10:48:10.282Z,24.31
2022-10-23T10:49:10.624Z,23.85
2022-10-23T10:50:10.838Z,24.97
2022-10-23T10:51:11.176Z,25.42
2022-10-23T10:52:11.495Z,24.76
2022-10-23T10:53:11.839Z,23.72
2022-10-23T10:54:12.039Z,24.14
2022-10-23T10:55:12.355Z,24.45
2022-10-23T10:56:12.682Z,25.84
2022-10-23T10:57:13.041Z,26.64
2022-10-23T10:58:13.273Z,26.76
2022-10-23T10:59:13.520Z,26.47
2022-10-23T11:00:13.830Z,25.91
2022-10-23T11:01:14.215Z,25.07
2022-10-23T11:02:14.596Z,24.37
2022-10-23T11:03:14.776Z,23.94
2022-10-23T11:04:14.998Z,23.77
2022-10-23T11:05:15.296Z,23.22
2022-10-23T11:06:15.585Z,22.86
2022-10-23T11:07:15.923Z,21.83
2022-10-23T11:08:16.237Z,21.64
2022-10-23T11:09:20.723Z,21.57
2022-10-23T11:10:20.694Z,21.14
2022-10-23T11:11:17.208Z,21.11
2022-10-23T11:12:17.510Z,20.76
2022-10-23T11:13:17.811Z,20.71
2022-10-23T11:14:18.109Z,20.76
2022-10-23T11:15:18.402Z,20.87
2022-10-23T11:16:18.731Z,20.83
2022-10-23T11:17:19.050Z,20.81
2022-10-23T11:18:19.355Z,21.01
2022-10-23T11:19:19.683Z,21.13
2022-10-23T11:20:19.986Z,21.36
2022-10-23T11:21:20.278Z,21.48
2022-10-23T11:22:20.573Z,21.57
2022-10-23T11:23:20.871Z,21.59
2022-10-23T11:24:21.215Z,21.83
2022-10-23T11:25:25.264Z,21.79
2022-10-23T11:26:21.751Z,21.64
2022-10-23T11:27:22.081Z,21.46
2022-10-23T11:28:22.404Z,21.21
2022-10-23T11:29:22.712Z,20.58
2022-10-23T11:30:23.013Z,20.27
2022-10-23T11:31:23.344Z,20.15
2022-10-23T11:32:23.711Z,20.24
2022-10-23T11:33:23.941Z,20.28
2022-10-23T11:34:24.246Z,20.24
2022-10-23T11:35:24.555Z,20.06
2022-10-23T11:36:24.863Z,19.63
2022-10-23T11:37:25.166Z,19.31
2022-10-23T11:38:25.515Z,18.87
2022-10-23T11:39:25.723Z,18.83
2022-10-23T11:40:26.026Z,18.86
2022-10-23T11:41:27.134Z,18.80
2022-10-23T11:42:26.606Z,18.65
2022-10-23T11:43:26.934Z,18.73
2022-10-23T11:44:27.266Z,18.82
2022-10-23T11:45:27.605Z,18.79
2022-10-23T11:46:27.839Z,18.68
2022-10-23T11:47:28.017Z,18.59
2022-10-23T11:48:28.325Z,18.50
2022-10-23T11:49:28.653Z,18.42
2022-10-23T11:50:28.997Z,18.43
2022-10-23T11:51:29.303Z,18.40
2022-10-23T11:52:29.630Z,18.34
2022-10-23T11:53:29.935Z,18.13
2022-10-23T11:54:30.257Z,17.94
2022-10-23T11:55:30.626Z,17.78
2022-10-23T11:56:30.808Z,17.69
2022-10-23T11:58:31.388Z,17.50
2022-10-23T11:59:31.621Z,17.43
2022-10-23T12:00:31.967Z,17.40
2022-10-23T12:01:32.274Z,17.40
2022-10-23T12:02:32.561Z,17.41
2022-10-23T12:03:32.738Z,17.43
2022-10-23T12:04:33.041Z,17.48
2022-10-23T12:05:33.394Z,17.43
2022-10-23T12:06:33.598Z,17.29
2022-10-23T12:07:33.948Z,17.23
2022-10-23T12:08:34.134Z,17.20
2022-10-23T12:09:34.458Z,17.20
2022-10-23T12:10:34.784Z,17.26
2022-10-23T12:11:35.121Z,17.26
2022-10-23T12:12:35.455Z,17.18
2022-10-23T12:13:35.763Z,17.07
2022-10-23T12:14:36.072Z,17.10
2022-10-23T12:15:36.386Z,17.13
2022-10-23T12:16:36.718Z,17.13
2022-10-23T12:17:37.018Z,17.11
2022-10-23T12:18:37.296Z,17.18
2022-10-23T12:19:37.586Z,17.25
2022-10-23T12:20:37.934Z,17.14
2022-10-23T12:21:38.149Z,17.10
2022-10-23T12:22:38.502Z,17.06
2022-10-23T12:23:38.719Z,16.98
2022-10-23T12:24:39.037Z,17.00
2022-10-23T12:25:39.351Z,16.93
2022-10-23T12:26:39.639Z,16.99
2022-10-23T12:27:39.990Z,16.93
2022-10-23T12:28:40.166Z,16.86
2022-10-23T12:29:40.471Z,16.86
2022-10-23T12:30:40.784Z,16.80
2022-10-23T12:31:44.282Z,16.75
2022-10-23T12:32:42.792Z,16.73
2022-10-23T12:33:41.754Z,16.74
2022-10-23T12:34:42.062Z,16.83
2022-10-23T12:35:42.367Z,16.90
2022-10-23T12:36:42.723Z,17.03
2022-10-23T12:37:42.916Z,17.11
2022-10-23T12:38:43.253Z,17.22
2022-10-23T12:39:43.567Z,17.33
2022-10-23T12:40:43.881Z,17.48
2022-10-23T12:41:44.248Z,17.57
2022-10-23T12:42:44.697Z,17.78
2022-10-23T12:43:44.781Z,17.99
2022-10-23T12:44:44.963Z,18.24
2022-10-23T12:45:45.277Z,18.54
2022-10-23T12:46:45.597Z,19.05
2022-10-23T12:47:45.945Z,19.32
2022-10-23T12:48:46.158Z,19.18
2022-10-23T12:49:46.528Z,19.18
2022-10-23T12:50:46.741Z,19.28
2022-10-23T12:51:47.060Z,19.35
2022-10-23T12:52:47.412Z,19.47
2022-10-23T12:53:47.630Z,19.46
2022-10-23T12:54:47.984Z,19.47
2022-10-23T12:55:48.262Z,19.40
2022-10-23T12:56:48.506Z,19.31
2022-10-23T12:57:48.834Z,18.99
2022-10-23T12:58:49.327Z,18.73
2022-10-23T12:59:49.396Z,18.58
2022-10-23T13:00:50.122Z,18.42
2022-10-23T13:01:52.782Z,18.13
2022-10-23T13:02:50.484Z,17.92
2022-10-23T13:03:50.841Z,17.74
2022-10-23T13:04:50.803Z,17.62
2022-10-23T13:05:51.185Z,17.44
2022-10-23T13:06:51.500Z,17.35
2022-10-23T13:07:51.663Z,17.25
2022-10-23T13:08:52.052Z,17.14
2022-10-23T13:09:52.580Z,17.00
2022-10-23T13:10:52.819Z,16.86
2022-10-23T13:11:53.595Z,16.78
2022-10-23T13:12:53.506Z,16.70
2022-10-23T13:13:54.022Z,16.59
2022-10-23T13:14:53.823Z,16.50
2022-10-23T13:15:53.985Z,16.45
2022-10-23T13:16:54.101Z,16.44
2022-10-23T13:17:54.369Z,16.42
2022-10-23T13:18:54.686Z,16.38
2022-10-23T13:19:54.975Z,16.33
2022-10-23T13:20:55.234Z,16.27
2022-10-23T13:21:55.460Z,16.30
2022-10-23T13:22:59.311Z,16.26
2022-10-23T13:23:56.076Z,16.26
2022-10-23T13:24:56.439Z,16.25
2022-10-23T13:25:56.643Z,16.26
2022-10-23T13:26:57.000Z,16.27
2022-10-23T13:27:57.185Z,16.30
2022-10-23T13:28:57.514Z,16.25
2022-10-23T13:29:57.867Z,16.20
2022-10-23T13:30:58.189Z,16.15
2022-10-23T13:31:58.573Z,16.15
2022-10-23T13:32:58.807Z,16.18
2022-10-23T13:33:59.144Z,16.20
2022-10-23T13:35:20.461Z,16.18
2022-10-23T13:36:00.635Z,16.20
2022-10-23T13:36:59.932Z,16.22
2022-10-23T13:38:00.138Z,16.23
2022-10-23T13:39:00.469Z,16.26
2022-10-23T13:40:00.840Z,16.31
2022-10-23T13:41:01.080Z,16.38
2022-10-23T13:42:01.285Z,16.38
2022-10-23T13:43:02.013Z,16.38
2022-10-23T13:44:02.381Z,16.42
2022-10-23T13:45:02.468Z,16.48
2022-10-23T13:46:03.469Z,16.50
2022-10-23T13:47:02.958Z,16.49
2022-10-23T13:48:08.830Z,16.50
2022-10-23T13:49:03.514Z,16.50
2022-10-23T13:50:03.642Z,16.50
2022-10-23T13:51:03.938Z,16.50
2022-10-23T13:52:04.159Z,16.49
2022-10-23T13:53:04.569Z,16.50
2022-10-23T13:54:04.855Z,16.53
2022-10-23T13:55:05.050Z,16.52
2022-10-23T13:56:05.455Z,16.52
2022-10-23T13:57:05.784Z,16.55
2022-10-23T13:58:06.049Z,16.56
2022-10-23T13:59:06.309Z,16.58
2022-10-23T14:00:06.532Z,16.58
2022-10-23T14:01:07.017Z,16.58
2022-10-23T14:02:07.365Z,16.60
2022-10-23T14:03:07.516Z,16.62
2022-10-23T14:04:07.816Z,16.65
2022-10-23T14:05:08.054Z,16.63
2022-10-23T14:06:08.255Z,16.67
2022-10-23T14:07:08.654Z,16.68
2022-10-23T14:08:08.883Z,16.73
2022-10-23T14:09:09.117Z,16.73
2022-10-23T14:10:09.320Z,16.74
2022-10-23T14:11:09.708Z,16.75
2022-10-23T14:12:09.958Z,16.77
2022-10-23T14:13:10.203Z,16.80
2022-10-23T14:14:10.550Z,16.80
2022-10-23T14:15:10.654Z,16.83
2022-10-23T14:16:10.873Z,16.83
2022-10-23T14:17:11.306Z,16.88
2022-10-23T14:18:11.640Z,16.90
2022-10-23T14:19:12.155Z,16.98
2022-10-23T14:20:12.172Z,17.06
2022-10-23T14:21:12.457Z,17.11
2022-10-23T14:22:12.739Z,17.15
2022-10-23T14:23:13.089Z,17.22
2022-10-23T14:24:13.542Z,17.23
2022-10-23T14:25:13.542Z,17.25
2022-10-23T14:26:13.947Z,17.22
2022-10-23T14:27:14.259Z,17.20
2022-10-23T14:28:14.685Z,17.17
2022-10-23T14:29:21.231Z,17.11
2022-10-23T14:30:16.528Z,17.06
2022-10-23T14:31:15.352Z,16.90
2022-10-23T14:32:16.059Z,16.77
2022-10-23T14:33:16.039Z,16.68
2022-10-23T14:34:16.403Z,16.67
2022-10-23T14:35:16.445Z,16.67
2022-10-23T14:36:16.806Z,16.68
2022-10-23T14:37:17.042Z,16.73
2022-10-23T14:38:17.542Z,16.75
2022-10-23T14:39:17.473Z,16.78
2022-10-23T14:40:17.695Z,16.77
2022-10-23T14:41:18.413Z,16.78
2022-10-23T14:42:18.438Z,16.78
2022-10-23T14:43:18.638Z,16.78
2022-10-23T14:44:20.574Z,16.77
2022-10-23T14:45:20.025Z,16.68
2022-10-23T14:46:19.484Z,16.62
2022-10-23T14:47:19.687Z,16.58
2022-10-23T14:48:19.997Z,16.58
2022-10-23T14:49:20.244Z,16.59
2022-10-23T14:50:20.645Z,16.58
2022-10-23T14:51:21.048Z,16.59
2022-10-23T14:52:23.263Z,16.60
2022-10-23T14:53:21.799Z,16.63
2022-10-23T14:54:21.587Z,16.68
2022-10-23T14:55:23.250Z,16.71
2022-10-23T14:56:22.639Z,16.74
2022-10-23T14:57:22.768Z,16.75
2022-10-23T14:58:22.792Z,16.78
2022-10-23T14:59:23.108Z,16.81
2022-10-23T15:00:23.329Z,16.85
2022-10-23T15:01:24.227Z,16.83
2022-10-23T15:02:24.146Z,16.81
2022-10-23T15:03:24.628Z,16.80
2022-10-23T15:04:25.789Z,16.75